createdAt,value
2017-09-06T00:02:02.799Z,18.94
2017-09-06T00:04:28.661Z,18.90
2017-09-06T00:06:54.407Z,18.88
2017-09-06T00:09:20.287Z,18.83
2017-09-06T00:11:46.035Z,18.81
2017-09-06T00:14:11.803Z,18.76
2017-09-06T00:16:37.562Z,18.79
2017-09-06T00:19:04.143Z,18.83
2017-09-06T00:21:29.927Z,18.75
2017-09-06T00:23:55.735Z,18.79
2017-09-06T00:26:21.516Z,18.74
2017-09-06T00:28:47.299Z,18.73
2017-09-06T00:31:13.050Z,18.68
2017-09-06T00:33:38.851Z,18.70
2017-09-06T00:36:04.603Z,18.66
2017-09-06T00:38:30.375Z,18.60
2017-09-06T00:40:56.168Z,18.59
2017-09-06T00:43:21.936Z,18.52
2017-09-06T00:45:47.683Z,18.53
2017-09-06T00:48:13.495Z,18.47
2017-09-06T00:50:39.281Z,18.50
2017-09-06T00:53:05.072Z,18.49
2017-09-06T00:55:30.909Z,18.43
2017-09-06T00:57:56.720Z,18.43
2017-09-06T01:00:22.519Z,18.35
2017-09-06T01:02:48.287Z,18.42
2017-09-06T01:05:14.067Z,18.38
2017-09-06T01:07:39.856Z,18.39
2017-09-06T01:10:05.615Z,18.42
2017-09-06T01:12:31.403Z,18.44
2017-09-06T01:14:57.203Z,18.37
2017-09-06T01:17:22.974Z,18.38
2017-09-06T01:19:49.339Z,18.35
2017-09-06T01:22:15.112Z,18.34
2017-09-06T01:24:40.912Z,18.35
2017-09-06T01:27:06.710Z,18.33
2017-09-06T01:29:32.487Z,18.30
2017-09-06T01:31:58.272Z,18.32
2017-09-06T01:34:24.058Z,18.29
2017-09-06T01:36:49.815Z,18.20
2017-09-06T01:39:15.589Z,18.19
2017-09-06T01:41:41.447Z,18.14
2017-09-06T01:44:07.214Z,18.13
2017-09-06T01:46:33.007Z,18.09
2017-09-06T01:48:58.767Z,18.00
2017-09-06T01:51:24.668Z,17.97
2017-09-06T01:53:50.447Z,17.94
2017-09-06T01:56:16.191Z,18.10
2017-09-06T01:58:41.949Z,18.22
2017-09-06T02:01:07.727Z,18.34
2017-09-06T02:03:33.539Z,18.19
2017-09-06T02:05:59.300Z,18.32
2017-09-06T02:08:25.059Z,18.45
2017-09-06T02:10:50.864Z,18.36
2017-09-06T02:13:16.619Z,18.30
2017-09-06T02:15:42.387Z,18.24
2017-09-06T02:18:08.217Z,18.22
2017-09-06T02:20:33.972Z,18.24
2017-09-06T02:22:59.736Z,18.26
2017-09-06T02:25:25.508Z,18.31
2017-09-06T02:27:51.259Z,18.30
2017-09-06T02:30:17.155Z,18.27
2017-09-06T02:32:42.924Z,18.25
2017-09-06T02:35:08.698Z,18.26
2017-09-06T02:37:34.483Z,18.22
2017-09-06T02:40:00.253Z,18.20
2017-09-06T02:42:26.035Z,18.17
2017-09-06T02:44:51.819Z,18.11
2017-09-06T02:47:17.642Z,18.11
2017-09-06T02:49:43.413Z,18.12
2017-09-06T02:52:09.188Z,18.06
2017-09-06T02:54:34.987Z,18.08
2017-09-06T02:57:00.725Z,18.07
2017-09-06T02:59:26.505Z,18.03
2017-09-06T03:01:52.251Z,18.03
2017-09-06T03:04:18.023Z,18.01
2017-09-06T03:06:43.828Z,18.08
2017-09-06T03:09:09.581Z,18.11
2017-09-06T03:11:35.350Z,18.08
2017-09-06T03:14:01.151Z,18.08
2017-09-06T03:16:26.912Z,18.06
2017-09-06T03:18:52.670Z,18.04
2017-09-06T03:21:18.455Z,18.04
2017-09-06T03:23:44.202Z,18.04
2017-09-06T03:26:09.991Z,18.09
2017-09-06T03:28:35.746Z,18.07
2017-09-06T03:31:01.548Z,18.10
2017-09-06T03:33:27.308Z,18.06
2017-09-06T03:35:53.183Z,18.09
2017-09-06T03:38:18.936Z,18.09
2017-09-06T03:40:44.738Z,18.09
2017-09-06T03:43:10.496Z,18.03
2017-09-06T03:45:36.259Z,17.99
2017-09-06T03:48:02.051Z,17.88
2017-09-06T03:50:27.811Z,17.86
2017-09-06T03:52:53.606Z,17.80
2017-09-06T03:55:19.821Z,17.80
2017-09-06T03:57:45.640Z,17.73
2017-09-06T04:00:11.395Z,17.75
2017-09-06T04:02:37.159Z,17.58
2017-09-06T04:05:02.999Z,17.62
2017-09-06T04:07:28.750Z,17.58
2017-09-06T04:09:54.512Z,17.57
2017-09-06T04:12:21.220Z,17.56
2017-09-06T04:14:47.091Z,17.60
2017-09-06T04:17:12.883Z,17.61
2017-09-06T04:19:38.628Z,17.65
2017-09-06T04:22:04.413Z,17.55
2017-09-06T04:24:30.202Z,17.52
2017-09-06T04:26:55.965Z,17.50
2017-09-06T04:29:21.755Z,17.46
2017-09-06T04:31:47.551Z,17.41
2017-09-06T04:34:13.348Z,17.41
2017-09-06T04:36:39.107Z,17.42
2017-09-06T04:39:04.864Z,17.39
2017-09-06T04:41:30.678Z,17.42
2017-09-06T04:43:56.510Z,17.45
2017-09-06T04:46:22.264Z,17.34
2017-09-06T04:48:48.115Z,17.33
2017-09-06T04:51:13.911Z,17.28
2017-09-06T04:53:39.670Z,17.33
2017-09-06T04:56:05.444Z,17.37
2017-09-06T04:58:31.219Z,17.40
2017-09-06T05:00:56.967Z,17.36
2017-09-06T05:03:22.751Z,17.39
2017-09-06T05:05:48.499Z,17.51
2017-09-06T05:08:14.344Z,17.44
2017-09-06T05:10:40.142Z,17.46
2017-09-06T05:13:06.017Z,17.44
2017-09-06T05:15:31.811Z,17.45
2017-09-06T05:17:57.615Z,17.47
2017-09-06T05:20:23.403Z,17.54
2017-09-06T05:22:49.151Z,17.54
2017-09-06T05:25:14.918Z,17.49
2017-09-06T05:27:40.747Z,17.48
2017-09-06T05:30:06.501Z,17.47
2017-09-06T05:32:32.259Z,17.48
2017-09-06T05:34:58.604Z,17.45
2017-09-06T05:37:24.385Z,17.44
2017-09-06T05:39:50.145Z,17.40
2017-09-06T05:42:16.739Z,17.35
2017-09-06T05:44:42.547Z,17.34
2017-09-06T05:47:08.388Z,17.41
2017-09-06T05:49:34.137Z,17.42
2017-09-06T05:51:59.895Z,17.59
2017-09-06T05:54:25.764Z,17.68
2017-09-06T05:56:51.524Z,17.75
2017-09-06T05:59:17.362Z,17.81
2017-09-06T06:01:43.168Z,17.97
2017-09-06T06:04:08.919Z,17.97
2017-09-06T06:06:34.759Z,17.98
2017-09-06T06:09:00.576Z,17.98
2017-09-06T06:11:26.351Z,17.99
2017-09-06T06:13:52.247Z,18.12
2017-09-06T06:16:18.027Z,18.12
2017-09-06T06:18:43.863Z,18.16
2017-09-06T06:21:09.649Z,18.05
2017-09-06T06:23:35.400Z,18.00
2017-09-06T06:26:01.299Z,18.05
2017-09-06T06:28:27.067Z,18.17
2017-09-06T06:30:52.835Z,18.15
2017-09-06T06:33:18.627Z,18.21
2017-09-06T06:35:44.460Z,18.37
2017-09-06T06:38:10.263Z,18.64
2017-09-06T06:40:36.092Z,18.81
2017-09-06T06:43:01.861Z,18.99
2017-09-06T06:45:27.612Z,19.44
2017-09-06T06:47:53.379Z,19.57
2017-09-06T06:50:19.173Z,19.38
2017-09-06T06:52:44.946Z,19.18
2017-09-06T06:55:11.920Z,19.29
2017-09-06T06:57:37.779Z,19.45
2017-09-06T07:00:03.650Z,19.30
2017-09-06T07:02:29.416Z,19.52
2017-09-06T07:04:55.421Z,19.75
2017-09-06T07:07:22.051Z,19.29
2017-09-06T07:09:47.827Z,19.43
2017-09-06T07:12:13.584Z,19.91
2017-09-06T07:14:39.359Z,19.85
2017-09-06T07:17:05.142Z,20.04
2017-09-06T07:19:30.897Z,20.47
2017-09-06T07:21:56.736Z,20.02
2017-09-06T07:24:22.573Z,19.87
2017-09-06T07:26:48.423Z,19.85
2017-09-06T07:29:14.196Z,19.42
2017-09-06T07:31:39.981Z,18.90
2017-09-06T07:34:05.760Z,18.73
2017-09-06T07:36:31.520Z,18.67
2017-09-06T07:38:57.316Z,18.88
2017-09-06T07:41:23.066Z,19.88
2017-09-06T07:43:48.880Z,20.83
2017-09-06T07:46:14.974Z,21.26
2017-09-06T07:48:40.787Z,21.78
2017-09-06T07:51:06.596Z,22.33
2017-09-06T07:53:32.335Z,22.20
2017-09-06T07:55:58.146Z,21.87
2017-09-06T07:58:23.899Z,22.23
2017-09-06T08:00:49.643Z,22.36
2017-09-06T08:03:15.459Z,21.12
2017-09-06T08:05:41.217Z,20.33
2017-09-06T08:08:09.036Z,20.04
2017-09-06T08:10:34.822Z,19.72
2017-09-06T08:13:00.575Z,19.51
2017-09-06T08:15:27.218Z,19.71
2017-09-06T08:17:53.072Z,19.42
2017-09-06T08:20:18.932Z,19.58
2017-09-06T08:22:44.719Z,19.41
2017-09-06T08:25:10.611Z,19.29
2017-09-06T08:27:36.384Z,19.35
2017-09-06T08:30:02.231Z,19.28
2017-09-06T08:32:28.017Z,19.37
2017-09-06T08:34:53.807Z,19.67
2017-09-06T08:37:19.552Z,19.62
2017-09-06T08:39:45.331Z,19.64
2017-09-06T08:42:11.127Z,19.75
2017-09-06T08:44:36.916Z,19.58
2017-09-06T08:47:02.659Z,19.61
2017-09-06T08:49:28.548Z,19.81
2017-09-06T08:51:54.327Z,19.92
2017-09-06T08:54:20.147Z,20.17
2017-09-06T08:56:46.040Z,20.23
2017-09-06T08:59:11.816Z,20.45
2017-09-06T09:01:37.579Z,20.49
2017-09-06T09:04:03.372Z,21.48
2017-09-06T09:06:29.136Z,22.15
2017-09-06T09:08:54.996Z,22.11
2017-09-06T09:11:20.787Z,21.47
2017-09-06T09:13:46.648Z,21.40
2017-09-06T09:16:12.448Z,21.10
2017-09-06T09:18:38.197Z,20.88
2017-09-06T09:21:03.987Z,20.78
2017-09-06T09:23:29.748Z,20.29
2017-09-06T09:25:55.579Z,19.95
2017-09-06T09:28:21.380Z,19.97
2017-09-06T09:30:47.127Z,20.24
2017-09-06T09:33:12.866Z,20.39
2017-09-06T09:35:38.695Z,20.46
2017-09-06T09:38:04.455Z,20.83
2017-09-06T09:40:30.343Z,21.50
2017-09-06T09:42:56.091Z,22.95
2017-09-06T09:45:21.903Z,23.20
2017-09-06T09:47:47.678Z,22.86
2017-09-06T09:50:13.440Z,21.44
2017-09-06T09:52:39.227Z,21.04
2017-09-06T09:55:05.128Z,20.84
2017-09-06T09:57:30.878Z,20.65
2017-09-06T09:59:56.647Z,20.26
2017-09-06T10:02:22.491Z,20.26
2017-09-06T10:04:48.265Z,20.26
2017-09-06T10:07:14.083Z,20.14
2017-09-06T10:09:39.924Z,20.00
2017-09-06T10:12:05.675Z,19.92
2017-09-06T10:14:31.513Z,19.76
2017-09-06T10:16:57.297Z,19.76
2017-09-06T10:19:23.235Z,19.70
2017-09-06T10:21:48.991Z,19.53
2017-09-06T10:24:14.764Z,19.48
2017-09-06T10:26:40.540Z,19.27
2017-09-06T10:29:06.295Z,19.56
2017-09-06T10:31:32.084Z,19.43
2017-09-06T10:33:57.883Z,19.67
2017-09-06T10:36:23.651Z,20.55
2017-09-06T10:38:49.415Z,20.23
2017-09-06T10:41:15.194Z,20.35
2017-09-06T10:43:40.988Z,20.22
2017-09-06T10:46:06.738Z,20.65
2017-09-06T10:48:32.615Z,20.54
2017-09-06T10:50:58.375Z,20.42
2017-09-06T10:53:24.175Z,20.36
2017-09-06T10:55:49.979Z,20.30
2017-09-06T10:58:15.731Z,19.56
2017-09-06T11:00:41.509Z,18.68
2017-09-06T11:03:07.263Z,18.26
2017-09-06T11:05:33.108Z,18.18
2017-09-06T11:07:58.864Z,18.65
2017-09-06T11:10:24.620Z,18.78
2017-09-06T11:12:50.491Z,19.18
2017-09-06T11:15:16.264Z,19.22
2017-09-06T11:17:42.062Z,19.10
2017-09-06T11:20:07.926Z,19.22
2017-09-06T11:22:33.701Z,18.77
2017-09-06T11:24:59.483Z,19.00
2017-09-06T11:27:25.243Z,19.69
2017-09-06T11:29:51.072Z,19.22
2017-09-06T11:32:16.833Z,19.92
2017-09-06T11:34:42.595Z,20.03
2017-09-06T11:37:08.487Z,19.74
2017-09-06T11:39:34.323Z,19.42
2017-09-06T11:42:00.084Z,19.00
2017-09-06T11:44:25.864Z,18.50
2017-09-06T11:46:51.644Z,18.32
2017-09-06T11:49:17.404Z,17.75
2017-09-06T11:51:43.242Z,18.82
2017-09-06T11:54:09.015Z,18.87
2017-09-06T11:56:34.787Z,18.60
2017-09-06T11:59:00.564Z,19.24
2017-09-06T12:01:26.326Z,18.68
2017-09-06T12:03:52.111Z,18.51
2017-09-06T12:06:17.859Z,18.37
2017-09-06T12:08:43.645Z,18.22
2017-09-06T12:11:09.408Z,18.23
2017-09-06T12:13:35.217Z,18.17
2017-09-06T12:16:00.967Z,18.10
2017-09-06T12:18:26.759Z,19.75
2017-09-06T12:20:52.534Z,19.41
2017-09-06T12:23:18.305Z,18.77
2017-09-06T12:25:44.081Z,19.13
2017-09-06T12:28:09.852Z,19.33
2017-09-06T12:30:35.600Z,19.94
2017-09-06T12:33:01.379Z,19.82
2017-09-06T12:35:27.162Z,20.52
2017-09-06T12:37:52.923Z,20.01
2017-09-06T12:40:18.675Z,19.56
2017-09-06T12:42:44.455Z,18.86
2017-09-06T12:45:10.235Z,18.75
2017-09-06T12:47:36.016Z,19.10
2017-09-06T12:50:01.821Z,18.97
2017-09-06T12:52:27.800Z,18.95
2017-09-06T12:54:53.638Z,19.29
2017-09-06T12:57:19.422Z,19.09
2017-09-06T12:59:45.221Z,19.35
2017-09-06T13:02:11.047Z,20.24
2017-09-06T13:04:36.899Z,20.73
2017-09-06T13:07:02.647Z,19.64
2017-09-06T13:09:28.432Z,19.20
2017-09-06T13:11:54.192Z,19.14
2017-09-06T13:14:19.947Z,21.14
2017-09-06T13:16:45.760Z,21.13
2017-09-06T13:19:11.623Z,21.82
2017-09-06T13:21:37.376Z,21.05
2017-09-06T13:24:03.184Z,20.40
2017-09-06T13:26:29.002Z,19.65
2017-09-06T13:28:54.743Z,19.45
2017-09-06T13:31:20.531Z,19.74
2017-09-06T13:33:46.299Z,19.56
2017-09-06T13:36:12.056Z,19.55
2017-09-06T13:38:37.838Z,19.24
2017-09-06T13:41:03.589Z,19.45
2017-09-06T13:43:29.565Z,19.41
2017-09-06T13:45:55.320Z,20.02
2017-09-06T13:48:21.076Z,20.61
2017-09-06T13:50:46.980Z,20.47
2017-09-06T13:53:12.730Z,19.36
2017-09-06T13:55:38.472Z,20.32
2017-09-06T13:58:04.247Z,20.83
2017-09-06T14:00:30.000Z,20.58
2017-09-06T14:02:55.793Z,21.24
2017-09-06T14:05:21.548Z,21.71
2017-09-06T14:07:47.451Z,21.28
2017-09-06T14:10:13.203Z,20.51
2017-09-06T14:12:40.200Z,20.60
2017-09-06T14:15:06.065Z,21.70
2017-09-06T14:17:31.900Z,22.28
2017-09-06T14:19:57.643Z,23.03
2017-09-06T14:22:23.427Z,22.93
2017-09-06T14:24:49.223Z,22.59
2017-09-06T14:27:15.036Z,22.86
2017-09-06T14:29:40.939Z,23.17
2017-09-06T14:32:06.695Z,22.16
2017-09-06T14:34:33.534Z,22.28
2017-09-06T14:36:59.337Z,21.99
2017-09-06T14:39:25.085Z,22.20
2017-09-06T14:41:50.872Z,22.03
2017-09-06T14:44:16.632Z,22.63
2017-09-06T14:46:42.471Z,23.59
2017-09-06T14:49:08.210Z,22.69
2017-09-06T14:51:33.987Z,21.69
2017-09-06T14:53:59.784Z,21.69
2017-09-06T14:56:25.686Z,21.06
2017-09-06T14:58:51.443Z,21.23
2017-09-06T15:01:17.199Z,21.41
2017-09-06T15:03:42.980Z,20.56
2017-09-06T15:06:08.751Z,21.62
2017-09-06T15:08:34.539Z,22.16
2017-09-06T15:11:00.291Z,22.50
2017-09-06T15:13:26.114Z,22.33
2017-09-06T15:15:51.880Z,22.62
2017-09-06T15:18:17.631Z,22.35
2017-09-06T15:20:43.396Z,22.63
2017-09-06T15:23:09.291Z,22.75
2017-09-06T15:25:35.044Z,22.73
2017-09-06T15:28:00.923Z,23.17
2017-09-06T15:30:26.907Z,22.92
2017-09-06T15:32:52.724Z,21.98
2017-09-06T15:35:18.576Z,22.15
2017-09-06T15:37:44.343Z,22.04
2017-09-06T15:40:10.135Z,22.35
2017-09-06T15:42:35.898Z,22.53
2017-09-06T15:45:01.879Z,22.98
2017-09-06T15:47:27.639Z,22.37
2017-09-06T15:49:53.604Z,21.66
2017-09-06T15:52:19.482Z,21.64
2017-09-06T15:54:45.382Z,22.36
2017-09-06T15:57:11.184Z,22.19
2017-09-06T15:59:36.949Z,21.55
2017-09-06T16:02:02.715Z,21.64
2017-09-06T16:04:28.568Z,21.17
2017-09-06T16:06:54.345Z,20.88
2017-09-06T16:09:20.114Z,20.62
2017-09-06T16:11:45.899Z,20.41
2017-09-06T16:14:11.808Z,20.37
2017-09-06T16:16:37.563Z,19.94
2017-09-06T16:19:03.319Z,20.19
2017-09-06T16:21:29.232Z,19.88
2017-09-06T16:23:55.007Z,19.75
2017-09-06T16:26:20.759Z,19.55
2017-09-06T16:28:46.546Z,18.85
2017-09-06T16:31:12.303Z,19.09
2017-09-06T16:33:38.051Z,18.97
2017-09-06T16:36:03.895Z,18.89
2017-09-06T16:38:29.691Z,18.72
2017-09-06T16:40:55.519Z,18.59
2017-09-06T16:43:21.286Z,18.42
2017-09-06T16:45:47.039Z,18.29
2017-09-06T16:48:12.848Z,18.23
2017-09-06T16:50:38.605Z,17.91
2017-09-06T16:53:04.375Z,17.81
2017-09-06T16:55:31.322Z,17.81
2017-09-06T16:57:57.085Z,17.69
2017-09-06T17:00:22.871Z,17.71
2017-09-06T17:02:49.539Z,17.72
2017-09-06T17:05:15.356Z,17.55
2017-09-06T17:07:41.105Z,17.48
2017-09-06T17:10:06.887Z,17.53
2017-09-06T17:12:32.663Z,17.37
2017-09-06T17:14:58.463Z,17.36
2017-09-06T17:17:24.229Z,17.38
2017-09-06T17:19:49.983Z,17.19
2017-09-06T17:22:15.807Z,17.15
2017-09-06T17:24:41.663Z,17.14
2017-09-06T17:27:07.415Z,17.07
2017-09-06T17:29:33.291Z,17.03
2017-09-06T17:31:59.046Z,17.07
2017-09-06T17:34:24.936Z,17.09
2017-09-06T17:36:50.697Z,17.04
2017-09-06T17:39:16.494Z,17.15
2017-09-06T17:41:42.281Z,16.89
2017-09-06T17:44:08.124Z,16.80
2017-09-06T17:46:33.911Z,16.80
2017-09-06T17:48:59.664Z,16.59
2017-09-06T17:51:25.428Z,16.61
2017-09-06T17:53:51.227Z,16.67
2017-09-06T17:56:16.976Z,16.43
2017-09-06T17:58:42.756Z,16.40
2017-09-06T18:01:08.551Z,16.38
2017-09-06T18:03:34.295Z,16.36
2017-09-06T18:06:00.092Z,16.31
2017-09-06T18:08:25.832Z,16.31
2017-09-06T18:10:51.673Z,16.30
2017-09-06T18:13:17.466Z,16.35
2017-09-06T18:15:43.212Z,16.32
2017-09-06T18:18:09.007Z,16.31
2017-09-06T18:20:34.768Z,16.27
2017-09-06T18:23:00.514Z,16.29
2017-09-06T18:25:26.351Z,16.28
2017-09-06T18:27:52.105Z,16.25
2017-09-06T18:30:17.892Z,16.31
2017-09-06T18:32:43.748Z,16.32
2017-09-06T18:35:09.579Z,16.27
2017-09-06T18:37:35.374Z,16.15
2017-09-06T18:40:01.153Z,16.18
2017-09-06T18:42:26.920Z,16.14
2017-09-06T18:44:52.816Z,16.12
2017-09-06T18:47:18.632Z,16.12
2017-09-06T18:49:44.435Z,16.07
2017-09-06T18:52:10.266Z,16.04
2017-09-06T18:54:36.093Z,16.03
2017-09-06T18:57:02.854Z,16.07
2017-09-06T18:59:28.650Z,16.04
2017-09-06T19:01:54.475Z,16.01
2017-09-06T19:04:20.219Z,16.04
2017-09-06T19:06:45.992Z,16.06
2017-09-06T19:09:11.774Z,16.05
2017-09-06T19:11:37.582Z,16.06
2017-09-06T19:14:03.340Z,15.99
2017-09-06T19:16:29.157Z,16.01
2017-09-06T19:18:54.959Z,15.94
2017-09-06T19:21:20.711Z,15.98
2017-09-06T19:23:46.491Z,15.97
2017-09-06T19:26:12.309Z,15.96
2017-09-06T19:28:38.173Z,15.89
2017-09-06T19:31:04.083Z,15.92
2017-09-06T19:33:29.855Z,15.93
2017-09-06T19:35:56.603Z,15.90
2017-09-06T19:38:22.375Z,15.92
2017-09-06T19:40:48.131Z,15.83
2017-09-06T19:43:13.915Z,15.86
2017-09-06T19:45:39.768Z,15.86
2017-09-06T19:48:05.673Z,15.91
2017-09-06T19:50:31.501Z,15.80
2017-09-06T19:52:57.275Z,15.81
2017-09-06T19:55:23.918Z,15.87
2017-09-06T19:57:49.756Z,15.81
2017-09-06T20:00:15.644Z,15.75
2017-09-06T20:02:41.433Z,15.79
2017-09-06T20:05:07.260Z,15.77
2017-09-06T20:07:33.206Z,15.83
2017-09-06T20:09:59.049Z,15.71
2017-09-06T20:12:24.870Z,15.73
2017-09-06T20:14:50.700Z,15.65
2017-09-06T20:17:16.447Z,15.61
2017-09-06T20:19:42.372Z,15.61
2017-09-06T20:22:08.220Z,15.65
2017-09-06T20:24:33.975Z,15.56
2017-09-06T20:26:59.740Z,15.61
2017-09-06T20:29:25.537Z,15.60
2017-09-06T20:31:51.468Z,15.55
2017-09-06T20:34:17.281Z,15.49
2017-09-06T20:36:43.125Z,15.40
2017-09-06T20:39:08.902Z,15.14
2017-09-06T20:41:34.695Z,15.08
2017-09-06T20:44:00.443Z,15.08
2017-09-06T20:46:27.240Z,15.01
2017-09-06T20:48:53.028Z,15.07
2017-09-06T20:51:18.795Z,14.98
2017-09-06T20:53:44.547Z,14.93
2017-09-06T20:56:10.328Z,14.95
2017-09-06T20:58:36.092Z,14.91
2017-09-06T21:01:01.895Z,14.86
2017-09-06T21:03:27.751Z,14.95
2017-09-06T21:05:53.512Z,14.84
2017-09-06T21:08:19.307Z,14.93
2017-09-06T21:10:45.089Z,14.91
2017-09-06T21:13:10.843Z,14.90
2017-09-06T21:15:36.644Z,14.95
2017-09-06T21:18:02.466Z,14.96
2017-09-06T21:20:28.235Z,14.98
2017-09-06T21:22:54.009Z,15.05
2017-09-06T21:25:19.799Z,15.04
2017-09-06T21:27:45.567Z,14.99
2017-09-06T21:30:11.350Z,14.91
2017-09-06T21:32:37.153Z,14.93
2017-09-06T21:35:02.904Z,14.92
2017-09-06T21:37:28.653Z,14.89
2017-09-06T21:39:54.452Z,14.87
2017-09-06T21:42:20.227Z,14.93
2017-09-06T21:44:46.063Z,14.93
2017-09-06T21:47:11.815Z,14.86
2017-09-06T21:49:37.679Z,14.67
2017-09-06T21:52:03.465Z,14.47
2017-09-06T21:54:29.223Z,14.20
2017-09-06T21:56:55.015Z,13.81
2017-09-06T21:59:20.887Z,13.68
2017-09-06T22:01:46.647Z,13.60
2017-09-06T22:04:12.472Z,13.49
2017-09-06T22:06:38.229Z,13.45
2017-09-06T22:09:03.999Z,13.60
2017-09-06T22:11:29.761Z,13.52
2017-09-06T22:13:55.539Z,13.52
2017-09-06T22:16:21.282Z,13.53
2017-09-06T22:18:47.096Z,13.40
2017-09-06T22:21:12.892Z,13.36
2017-09-06T22:23:38.643Z,13.35
2017-09-06T22:26:04.432Z,13.36
2017-09-06T22:28:30.195Z,13.29
2017-09-06T22:30:55.951Z,13.32
2017-09-06T22:33:21.851Z,13.35
2017-09-06T22:35:47.608Z,13.31
2017-09-06T22:38:13.360Z,13.34
2017-09-06T22:40:39.215Z,13.23
2017-09-06T22:43:04.998Z,13.18
2017-09-06T22:45:30.763Z,13.21
2017-09-06T22:47:56.545Z,13.19
2017-09-06T22:50:22.312Z,13.15
2017-09-06T22:52:48.089Z,13.15
2017-09-06T22:55:14.823Z,13.13
2017-09-06T22:57:40.655Z,13.20
2017-09-06T23:00:06.542Z,13.14
2017-09-06T23:02:32.303Z,13.09
2017-09-06T23:04:58.180Z,13.11
2017-09-06T23:07:23.941Z,13.20
2017-09-06T23:09:49.713Z,13.24
2017-09-06T23:12:15.535Z,13.28
2017-09-06T23:14:41.315Z,13.38
2017-09-06T23:17:07.056Z,13.39
2017-09-06T23:19:32.889Z,13.09
2017-09-06T23:21:58.654Z,13.24
2017-09-06T23:24:24.500Z,13.40
2017-09-06T23:26:50.248Z,13.48
2017-09-06T23:29:16.023Z,13.36
2017-09-06T23:31:41.803Z,13.46
2017-09-06T23:34:07.567Z,13.49
2017-09-06T23:36:33.517Z,13.52
2017-09-06T23:38:59.398Z,13.54
2017-09-06T23:41:25.187Z,13.29
2017-09-06T23:43:51.051Z,13.33
2017-09-06T23:46:16.814Z,13.33
2017-09-06T23:48:42.601Z,13.55
2017-09-06T23:51:08.379Z,13.29
2017-09-06T23:53:34.151Z,13.18
2017-09-06T23:55:59.964Z,13.31
2017-09-06T23:58:25.731Z,13.32
